createdAt,value
2023-03-30T00:00:56.551Z,26.34
2023-03-30T00:01:56.570Z,26.33
2023-03-30T00:02:56.751Z,26.33
2023-03-30T00:03:56.826Z,26.33
2023-03-30T00:05:56.752Z,26.33
2023-03-30T00:06:56.707Z,26.33
2023-03-30T00:07:56.748Z,26.33
2023-03-30T00:08:56.761Z,26.33
2023-03-30T00:09:56.777Z,26.33
2023-03-30T00:10:56.843Z,26.30
2023-03-30T00:11:56.860Z,26.31
2023-03-30T00:12:56.896Z,26.33
2023-03-30T00:13:56.907Z,26.33
2023-03-30T00:14:56.904Z,26.31
2023-03-30T00:15:56.975Z,26.31
2023-03-30T00:16:57.037Z,26.30
2023-03-30T00:17:57.167Z,26.30
2023-03-30T00:18:57.041Z,26.28
2023-03-30T00:19:57.166Z,26.30
2023-03-30T00:20:57.103Z,26.28
2023-03-30T00:21:57.162Z,26.31
2023-03-30T00:22:57.213Z,26.31
2023-03-30T00:23:57.212Z,26.30
2023-03-30T00:24:57.231Z,26.31
2023-03-30T00:25:57.286Z,26.30
2023-03-30T00:26:57.288Z,26.33
2023-03-30T00:27:57.372Z,26.31
2023-03-30T00:28:57.375Z,26.30
2023-03-30T00:29:57.414Z,26.27
2023-03-30T00:30:57.431Z,26.31
2023-03-30T00:31:57.498Z,26.31
2023-03-30T00:32:57.516Z,26.30
2023-03-30T00:33:57.496Z,26.28
2023-03-30T00:34:57.524Z,26.27
2023-03-30T00:35:57.614Z,26.28
2023-03-30T00:36:57.627Z,26.28
2023-03-30T00:37:57.613Z,26.30
2023-03-30T00:38:57.659Z,26.30
2023-03-30T00:39:57.693Z,26.30
2023-03-30T00:40:57.746Z,26.30
2023-03-30T00:41:57.760Z,26.28
2023-03-30T00:42:57.769Z,26.28
2023-03-30T00:43:57.864Z,26.30
2023-03-30T00:44:57.829Z,26.30
2023-03-30T00:45:57.905Z,26.27
2023-03-30T00:46:57.909Z,26.30
2023-03-30T00:47:57.951Z,26.27
2023-03-30T00:48:58.060Z,26.31
2023-03-30T00:49:57.985Z,26.27
2023-03-30T00:50:58.022Z,26.28
2023-03-30T00:51:58.013Z,26.27
2023-03-30T00:52:58.080Z,26.28
2023-03-30T00:53:58.087Z,26.28
2023-03-30T00:54:58.138Z,26.27
2023-03-30T00:55:58.193Z,26.26
2023-03-30T00:56:58.237Z,26.27
2023-03-30T00:57:58.282Z,26.28
2023-03-30T00:58:58.264Z,26.27
2023-03-30T00:59:58.321Z,26.28
2023-03-30T01:00:58.426Z,26.28
2023-03-30T01:01:58.398Z,26.28
2023-03-30T01:02:58.475Z,26.27
2023-03-30T01:03:58.470Z,26.28
2023-03-30T01:04:58.497Z,26.28
2023-03-30T01:05:58.466Z,26.27
2023-03-30T01:06:58.529Z,26.28
2023-03-30T01:07:58.594Z,26.27
2023-03-30T01:08:58.621Z,26.24
2023-03-30T01:09:58.644Z,26.28
2023-03-30T01:10:58.662Z,26.26
2023-03-30T01:11:58.729Z,26.26
2023-03-30T01:12:58.755Z,26.26
2023-03-30T01:13:58.745Z,26.26
2023-03-30T01:14:58.797Z,26.24
2023-03-30T01:15:58.924Z,26.26
2023-03-30T01:16:58.865Z,26.24
2023-03-30T01:17:58.998Z,26.26
2023-03-30T01:18:58.981Z,26.26
2023-03-30T01:19:58.983Z,26.24
2023-03-30T01:20:59.041Z,26.27
2023-03-30T01:21:59.077Z,26.23
2023-03-30T01:22:59.114Z,26.24
2023-03-30T01:23:59.191Z,26.24
2023-03-30T01:24:59.129Z,26.26
2023-03-30T01:25:59.162Z,26.23
2023-03-30T01:26:59.207Z,26.24
2023-03-30T01:27:59.256Z,26.26
2023-03-30T01:28:59.343Z,26.26
2023-03-30T01:29:59.336Z,26.24
2023-03-30T01:30:59.354Z,26.24
2023-03-30T01:31:59.381Z,26.23
2023-03-30T01:32:59.493Z,26.23
2023-03-30T01:33:59.430Z,26.21
2023-03-30T01:34:59.541Z,26.24
2023-03-30T01:35:59.574Z,26.21
2023-03-30T01:36:59.524Z,26.24
2023-03-30T01:37:59.515Z,26.26
2023-03-30T01:38:59.638Z,26.21
2023-03-30T01:39:59.631Z,26.21
2023-03-30T01:40:59.651Z,26.20
2023-03-30T01:41:59.717Z,26.23
2023-03-30T01:42:59.770Z,26.23
2023-03-30T01:43:59.772Z,26.23
2023-03-30T01:44:59.842Z,26.21
2023-03-30T01:45:59.910Z,26.23
2023-03-30T01:46:59.906Z,26.27
2023-03-30T01:48:00.003Z,26.24
2023-03-30T01:48:59.963Z,26.23
2023-03-30T01:49:59.987Z,26.21
2023-03-30T01:51:00.026Z,26.20
2023-03-30T01:52:00.096Z,26.21
2023-03-30T01:53:00.164Z,26.23
2023-03-30T01:54:00.107Z,26.23
2023-03-30T01:55:00.188Z,26.21
2023-03-30T01:56:00.177Z,26.20
2023-03-30T01:57:00.242Z,26.21
2023-03-30T01:58:00.272Z,26.21
2023-03-30T01:59:00.306Z,26.21
2023-03-30T02:00:00.381Z,26.23
2023-03-30T02:01:00.496Z,26.23
2023-03-30T02:02:00.623Z,26.19
2023-03-30T02:03:00.570Z,26.20
2023-03-30T02:04:00.576Z,26.21
2023-03-30T02:05:00.576Z,26.20
2023-03-30T02:06:00.592Z,26.20
2023-03-30T02:07:00.636Z,26.21
2023-03-30T02:08:00.726Z,26.20
2023-03-30T02:09:00.747Z,26.20
2023-03-30T02:10:00.771Z,26.21
2023-03-30T02:11:00.960Z,26.19
2023-03-30T02:12:00.873Z,26.21
2023-03-30T02:13:00.922Z,26.19
2023-03-30T02:14:00.964Z,26.19
2023-03-30T02:15:00.972Z,26.19
2023-03-30T02:16:01.036Z,26.17
2023-03-30T02:17:01.081Z,26.20
2023-03-30T02:18:01.238Z,26.17
2023-03-30T02:19:01.128Z,26.20
2023-03-30T02:20:01.168Z,26.20
2023-03-30T02:21:01.419Z,26.19
2023-03-30T02:22:01.282Z,26.19
2023-03-30T02:23:01.305Z,26.17
2023-03-30T02:24:01.361Z,26.19
2023-03-30T02:25:01.509Z,26.19
2023-03-30T02:26:01.462Z,26.19
2023-03-30T02:27:01.515Z,26.19
2023-03-30T02:28:01.505Z,26.17
2023-03-30T02:29:01.576Z,26.19
2023-03-30T02:30:01.669Z,26.17
2023-03-30T02:31:01.962Z,26.20
2023-03-30T02:32:01.908Z,26.20
2023-03-30T02:33:01.818Z,26.19
2023-03-30T02:34:01.810Z,26.17
2023-03-30T02:35:01.815Z,26.17
2023-03-30T02:36:02.065Z,26.17
2023-03-30T02:37:01.938Z,26.16
2023-03-30T02:38:01.977Z,26.21
2023-03-30T02:39:02.064Z,26.20
2023-03-30T02:40:02.110Z,26.19
2023-03-30T02:41:02.334Z,26.17
2023-03-30T02:42:02.185Z,26.17
2023-03-30T02:43:02.238Z,26.17
2023-03-30T02:44:02.276Z,26.19
2023-03-30T02:45:02.305Z,26.16
2023-03-30T02:46:02.354Z,26.19
2023-03-30T02:47:02.412Z,26.19
2023-03-30T02:48:02.489Z,26.20
2023-03-30T02:49:02.462Z,26.17
2023-03-30T02:50:02.519Z,26.17
2023-03-30T02:51:02.893Z,26.19
2023-03-30T02:52:02.599Z,26.16
2023-03-30T02:53:02.683Z,26.17
2023-03-30T02:54:02.660Z,26.16
2023-03-30T02:55:02.707Z,26.16
2023-03-30T02:56:02.751Z,26.16
2023-03-30T02:57:02.838Z,26.17
2023-03-30T02:58:02.852Z,26.17
2023-03-30T02:59:02.905Z,26.15
2023-03-30T03:00:02.919Z,26.17
2023-03-30T03:01:03.154Z,26.16
2023-03-30T03:02:03.150Z,26.17
2023-03-30T03:03:03.124Z,26.17
2023-03-30T03:04:03.199Z,26.15
2023-03-30T03:05:03.148Z,26.17
2023-03-30T03:06:03.173Z,26.15
2023-03-30T03:07:03.232Z,26.15
2023-03-30T03:08:03.304Z,26.16
2023-03-30T03:09:03.360Z,26.17
2023-03-30T03:10:03.380Z,26.15
2023-03-30T03:11:03.666Z,26.13
2023-03-30T03:12:03.461Z,26.13
2023-03-30T03:13:03.472Z,26.16
2023-03-30T03:14:03.596Z,26.17
2023-03-30T03:15:03.615Z,26.16
2023-03-30T03:16:04.462Z,26.16
2023-03-30T03:17:03.761Z,26.15
2023-03-30T03:18:03.734Z,26.16
2023-03-30T03:19:03.761Z,26.15
2023-03-30T03:20:03.834Z,26.13
2023-03-30T03:21:04.114Z,26.16
2023-03-30T03:22:03.936Z,26.16
2023-03-30T03:23:03.946Z,26.15
2023-03-30T03:24:04.031Z,26.16
2023-03-30T03:25:04.093Z,26.13
2023-03-30T03:26:04.145Z,26.13
2023-03-30T03:27:04.188Z,26.13
2023-03-30T03:28:04.265Z,26.15
2023-03-30T03:29:04.291Z,26.13
2023-03-30T03:30:04.383Z,26.12
2023-03-30T03:31:04.563Z,26.13
2023-03-30T03:32:04.433Z,26.13
2023-03-30T03:33:04.510Z,26.13
2023-03-30T03:34:04.551Z,26.15
2023-03-30T03:35:04.613Z,26.15
2023-03-30T03:36:04.733Z,26.12
2023-03-30T03:37:04.712Z,26.15
2023-03-30T03:38:04.767Z,26.13
2023-03-30T03:39:04.775Z,26.16
2023-03-30T03:40:04.848Z,26.15
2023-03-30T03:41:05.149Z,26.13
2023-03-30T03:42:04.939Z,26.13
2023-03-30T03:43:04.982Z,26.13
2023-03-30T03:44:05.055Z,26.13
2023-03-30T03:45:05.098Z,26.12
2023-03-30T03:46:05.173Z,26.13
2023-03-30T03:47:05.177Z,26.12
2023-03-30T03:48:05.279Z,26.10
2023-03-30T03:49:05.297Z,26.12
2023-03-30T03:50:05.385Z,26.13
2023-03-30T03:51:05.603Z,26.15
2023-03-30T03:52:05.453Z,26.12
2023-03-30T03:53:05.474Z,26.13
2023-03-30T03:54:05.535Z,26.12
2023-03-30T03:55:05.572Z,26.10
2023-03-30T03:56:05.649Z,26.12
2023-03-30T03:57:05.730Z,26.10
2023-03-30T03:58:05.727Z,26.15
2023-03-30T03:59:05.752Z,26.10
2023-03-30T04:00:05.862Z,26.10
2023-03-30T04:01:06.035Z,26.10
2023-03-30T04:02:06.348Z,26.13
2023-03-30T04:03:06.005Z,26.08
2023-03-30T04:04:06.066Z,26.10
2023-03-30T04:05:06.211Z,26.10
2023-03-30T04:06:06.156Z,26.12
2023-03-30T04:07:06.156Z,26.12
2023-03-30T04:08:06.189Z,26.10
2023-03-30T04:09:06.268Z,26.12
2023-03-30T04:10:06.361Z,26.10
2023-03-30T04:11:06.380Z,26.10
2023-03-30T04:12:06.466Z,26.12
2023-03-30T04:13:06.498Z,26.13
2023-03-30T04:14:06.565Z,26.12
2023-03-30T04:15:06.579Z,26.12
2023-03-30T04:16:06.675Z,26.10
2023-03-30T04:17:06.704Z,26.10
2023-03-30T04:18:06.815Z,26.12
2023-03-30T04:19:06.809Z,26.08
2023-03-30T04:20:06.858Z,26.08
2023-03-30T04:21:07.175Z,26.08
2023-03-30T04:22:06.978Z,26.10
2023-03-30T04:23:07.007Z,26.08
2023-03-30T04:24:07.032Z,26.06
2023-03-30T04:25:07.126Z,26.07
2023-03-30T04:26:07.197Z,26.06
2023-03-30T04:27:07.170Z,26.06
2023-03-30T04:28:07.289Z,26.06
2023-03-30T04:29:07.356Z,26.04
2023-03-30T04:30:07.377Z,26.01
2023-03-30T04:31:07.455Z,26.07
2023-03-30T04:32:07.525Z,26.01
2023-03-30T04:33:07.533Z,26.03
2023-03-30T04:34:07.540Z,26.04
2023-03-30T04:35:07.598Z,26.06
2023-03-30T04:36:07.716Z,26.06
2023-03-30T04:37:07.731Z,26.03
2023-03-30T04:38:07.749Z,26.04
2023-03-30T04:39:07.796Z,26.03
2023-03-30T04:40:07.842Z,26.04
2023-03-30T04:41:07.896Z,26.03
2023-03-30T04:42:07.912Z,26.04
2023-03-30T04:43:07.962Z,26.07
2023-03-30T04:44:08.040Z,26.07
2023-03-30T04:45:08.106Z,26.06
2023-03-30T04:46:08.188Z,26.06
2023-03-30T04:47:08.148Z,26.06
2023-03-30T04:48:08.257Z,26.06
2023-03-30T04:49:08.246Z,26.07
2023-03-30T04:50:08.356Z,26.04
2023-03-30T04:51:08.406Z,26.06
2023-03-30T04:52:08.440Z,26.04
2023-03-30T04:53:08.461Z,26.06
2023-03-30T04:54:08.523Z,26.07
2023-03-30T04:55:08.593Z,26.06
2023-03-30T04:56:08.636Z,26.06
2023-03-30T04:57:08.758Z,26.03
2023-03-30T04:58:08.758Z,26.04
2023-03-30T04:59:08.819Z,26.04
2023-03-30T05:00:08.897Z,26.07
2023-03-30T05:01:08.942Z,26.07
2023-03-30T05:02:09.023Z,26.07
2023-03-30T05:03:09.044Z,26.04
2023-03-30T05:04:09.051Z,26.07
2023-03-30T05:05:09.113Z,26.03
2023-03-30T05:06:09.168Z,26.06
2023-03-30T05:07:09.238Z,26.06
2023-03-30T05:08:09.261Z,26.03
2023-03-30T05:09:09.309Z,26.06
2023-03-30T05:10:09.377Z,26.06
2023-03-30T05:11:09.473Z,26.07
2023-03-30T05:12:09.465Z,26.04
2023-03-30T05:13:09.517Z,26.06
2023-03-30T05:14:09.558Z,26.06
2023-03-30T05:15:09.656Z,26.03
2023-03-30T05:16:09.672Z,26.04
2023-03-30T05:17:09.764Z,26.04
2023-03-30T05:18:09.791Z,26.04
2023-03-30T05:19:09.865Z,26.06
2023-03-30T05:20:09.876Z,26.04
2023-03-30T05:21:09.947Z,26.06
2023-03-30T05:22:09.998Z,26.06
2023-03-30T05:23:10.007Z,26.06
2023-03-30T05:24:10.060Z,26.06
2023-03-30T05:25:10.203Z,26.04
2023-03-30T05:26:10.221Z,26.04
2023-03-30T05:27:10.330Z,26.04
2023-03-30T05:28:10.283Z,26.06
2023-03-30T05:29:10.391Z,26.06
2023-03-30T05:30:10.424Z,26.04
2023-03-30T05:31:10.443Z,26.03
2023-03-30T05:32:10.466Z,26.03
2023-03-30T05:33:10.591Z,26.01
2023-03-30T05:34:10.567Z,26.03
2023-03-30T05:35:10.614Z,26.06
2023-03-30T05:36:10.784Z,26.06
2023-03-30T05:37:10.765Z,26.10
2023-03-30T05:38:10.792Z,26.12
2023-03-30T05:39:10.827Z,26.07
2023-03-30T05:40:10.850Z,26.10
2023-03-30T05:41:10.964Z,26.13
2023-03-30T05:42:10.913Z,26.15
2023-03-30T05:43:10.998Z,26.16
2023-03-30T05:44:10.995Z,26.19
2023-03-30T05:45:11.136Z,26.24
2023-03-30T05:46:11.155Z,26.26
2023-03-30T05:47:11.148Z,26.26
2023-03-30T05:48:11.188Z,26.33
2023-03-30T05:49:11.201Z,26.33
2023-03-30T05:50:11.203Z,26.36
2023-03-30T05:51:11.264Z,26.38
2023-03-30T05:52:11.304Z,26.38
2023-03-30T05:53:11.382Z,26.43
2023-03-30T05:54:11.331Z,26.43
2023-03-30T05:55:11.349Z,26.44
2023-03-30T05:56:11.378Z,26.46
2023-03-30T05:57:11.496Z,26.50
2023-03-30T05:58:11.862Z,26.50
2023-03-30T05:59:11.395Z,26.52
2023-03-30T06:00:11.454Z,26.52
2023-03-30T06:01:11.482Z,26.54
2023-03-30T06:02:11.474Z,26.57
2023-03-30T06:03:11.619Z,26.55
2023-03-30T06:04:11.650Z,26.57
2023-03-30T06:05:12.300Z,26.58
2023-03-30T06:06:11.658Z,26.57
2023-03-30T06:07:11.506Z,26.60
2023-03-30T06:08:11.525Z,26.60
2023-03-30T06:09:11.532Z,26.58
2023-03-30T06:10:11.522Z,26.61
2023-03-30T06:11:11.529Z,26.65
2023-03-30T06:12:11.628Z,26.65
2023-03-30T06:13:11.534Z,26.65
2023-03-30T06:14:11.562Z,26.64
2023-03-30T06:15:11.549Z,26.67
2023-03-30T06:16:11.606Z,26.68
2023-03-30T06:17:11.567Z,26.65
2023-03-30T06:18:11.579Z,26.67
2023-03-30T06:19:11.598Z,26.68
2023-03-30T06:20:11.613Z,26.70
2023-03-30T06:21:11.557Z,26.68
2023-03-30T06:22:11.584Z,26.67
2023-03-30T06:23:11.571Z,26.70
2023-03-30T06:24:11.593Z,26.71
2023-03-30T06:25:11.600Z,26.68
2023-03-30T06:26:11.648Z,26.68
2023-03-30T06:27:11.689Z,26.68
2023-03-30T06:28:11.657Z,26.67
2023-03-30T06:29:11.694Z,26.65
2023-03-30T06:30:11.727Z,26.67
2023-03-30T06:31:11.695Z,26.68
2023-03-30T06:32:11.665Z,26.68
2023-03-30T06:33:11.764Z,26.68
2023-03-30T06:34:11.718Z,26.68
2023-03-30T06:35:11.614Z,26.68
2023-03-30T06:36:11.688Z,26.68
2023-03-30T06:37:11.601Z,26.70
2023-03-30T06:38:11.641Z,26.68
2023-03-30T06:39:11.930Z,26.68
2023-03-30T06:40:11.620Z,26.71
2023-03-30T06:41:11.751Z,26.73
2023-03-30T06:42:11.629Z,26.74
2023-03-30T06:43:11.642Z,26.78
2023-03-30T06:44:11.640Z,26.77
2023-03-30T06:45:11.676Z,26.79
2023-03-30T06:46:11.685Z,26.79
2023-03-30T06:47:11.783Z,26.82
2023-03-30T06:48:11.651Z,26.81
2023-03-30T06:49:11.625Z,26.82
2023-03-30T06:50:11.712Z,26.85
2023-03-30T06:51:11.630Z,26.89
2023-03-30T06:52:11.634Z,26.87
2023-03-30T06:53:11.714Z,26.87
2023-03-30T06:54:11.621Z,26.88
2023-03-30T06:55:11.690Z,26.91
2023-03-30T06:56:11.720Z,26.91
2023-03-30T06:57:11.730Z,26.92
2023-03-30T06:58:11.637Z,26.92
2023-03-30T06:59:11.655Z,26.92
2023-03-30T07:00:11.687Z,26.94
2023-03-30T07:01:11.714Z,26.92
2023-03-30T07:02:11.703Z,26.94
2023-03-30T07:03:11.728Z,26.92
2023-03-30T07:04:11.735Z,26.97
2023-03-30T07:05:11.635Z,26.97
2023-03-30T07:06:11.697Z,26.97
2023-03-30T07:07:11.923Z,26.98
2023-03-30T07:08:11.681Z,26.98
2023-03-30T07:09:11.847Z,26.99
2023-03-30T07:10:11.662Z,27.01
2023-03-30T07:11:11.748Z,26.99
2023-03-30T07:12:11.681Z,26.99
2023-03-30T07:13:11.684Z,27.02
2023-03-30T07:14:11.671Z,27.02
2023-03-30T07:15:11.643Z,27.03
2023-03-30T07:16:11.659Z,27.01
2023-03-30T07:17:11.971Z,26.99
2023-03-30T07:18:11.753Z,26.99
2023-03-30T07:19:11.915Z,26.99
2023-03-30T07:20:11.820Z,27.01
2023-03-30T07:21:11.709Z,27.02
2023-03-30T07:22:11.719Z,27.02
2023-03-30T07:23:11.635Z,27.03
2023-03-30T07:24:11.749Z,27.05
2023-03-30T07:25:12.256Z,27.05
2023-03-30T07:26:11.645Z,27.03
2023-03-30T07:27:11.597Z,27.05
2023-03-30T07:28:11.666Z,27.08
2023-03-30T07:29:11.968Z,27.03
2023-03-30T07:30:21.147Z,27.03
2023-03-30T07:31:12.729Z,27.05
2023-03-30T07:32:11.644Z,27.06
2023-03-30T07:33:11.679Z,27.09
2023-03-30T07:34:11.580Z,27.09
2023-03-30T07:35:11.618Z,27.06
2023-03-30T07:36:11.635Z,27.12
2023-03-30T07:37:11.651Z,27.12
2023-03-30T07:38:11.610Z,27.12
2023-03-30T07:39:11.556Z,27.11
2023-03-30T07:40:11.617Z,27.15
2023-03-30T07:41:11.612Z,27.13
2023-03-30T07:42:11.541Z,27.13
2023-03-30T07:43:11.550Z,27.06
2023-03-30T07:44:11.531Z,27.09
2023-03-30T07:45:12.578Z,27.09
2023-03-30T07:46:11.736Z,27.05
2023-03-30T07:47:11.709Z,27.05
2023-03-30T07:48:11.766Z,27.02
2023-03-30T07:49:11.728Z,26.98
2023-03-30T07:50:11.698Z,26.98
2023-03-30T07:51:11.711Z,26.94
2023-03-30T07:52:11.697Z,26.92
2023-03-30T07:53:11.689Z,26.95
2023-03-30T07:54:11.782Z,26.91
2023-03-30T07:55:11.745Z,26.94
2023-03-30T07:56:11.663Z,26.94
2023-03-30T07:57:11.700Z,26.97
2023-03-30T07:58:12.414Z,26.98
2023-03-30T07:59:12.297Z,27.02
2023-03-30T08:00:11.696Z,27.03
2023-03-30T08:01:11.687Z,27.06
2023-03-30T08:02:11.680Z,27.06
2023-03-30T08:03:11.842Z,27.09
2023-03-30T08:04:12.051Z,27.12
2023-03-30T08:05:11.757Z,27.13
2023-03-30T08:06:11.717Z,27.16
2023-03-30T08:07:11.707Z,27.16
2023-03-30T08:08:11.834Z,27.21
2023-03-30T08:09:11.745Z,27.21
2023-03-30T08:10:11.747Z,27.21
2023-03-30T08:11:11.754Z,27.18
2023-03-30T08:12:11.755Z,27.19
2023-03-30T08:13:11.769Z,27.19
2023-03-30T08:14:11.782Z,27.22
2023-03-30T08:15:11.788Z,27.24
2023-03-30T08:16:11.838Z,27.26
2023-03-30T08:17:11.835Z,27.28
2023-03-30T08:18:11.923Z,27.24
2023-03-30T08:19:11.835Z,27.26
2023-03-30T08:20:11.848Z,27.26
2023-03-30T08:21:11.811Z,27.28
2023-03-30T08:22:11.810Z,27.25
2023-03-30T08:23:11.842Z,27.26
2023-03-30T08:24:11.846Z,27.28
2023-03-30T08:25:11.758Z,27.28
2023-03-30T08:26:11.782Z,27.26
2023-03-30T08:27:11.846Z,27.28
2023-03-30T08:28:11.865Z,27.26
2023-03-30T08:29:11.859Z,27.28
2023-03-30T08:30:11.887Z,27.25
2023-03-30T08:31:11.940Z,27.28
2023-03-30T08:32:11.992Z,27.28
2023-03-30T08:33:12.065Z,27.31
2023-03-30T08:34:12.116Z,27.31
2023-03-30T08:35:12.137Z,27.35
2023-03-30T08:36:12.215Z,27.33
2023-03-30T08:37:12.240Z,27.33
2023-03-30T08:38:12.366Z,27.35
2023-03-30T08:39:12.366Z,27.35
2023-03-30T08:40:12.473Z,27.33
2023-03-30T08:41:12.468Z,27.32
2023-03-30T08:42:12.579Z,27.36
2023-03-30T08:43:12.499Z,27.31
2023-03-30T08:44:12.513Z,27.32
2023-03-30T08:45:12.525Z,27.31
2023-03-30T08:46:12.546Z,27.22
2023-03-30T08:47:14.173Z,27.19
2023-03-30T08:48:12.641Z,27.22
2023-03-30T08:49:12.509Z,27.24
2023-03-30T08:50:13.687Z,27.16
2023-03-30T08:51:12.554Z,27.13
2023-03-30T08:52:12.575Z,27.12
2023-03-30T08:53:12.543Z,27.12
2023-03-30T08:54:12.536Z,27.12
2023-03-30T08:55:12.562Z,27.13
2023-03-30T08:56:12.562Z,27.12
2023-03-30T08:57:12.731Z,27.15
2023-03-30T08:58:12.684Z,27.13
2023-03-30T08:59:12.618Z,27.11
2023-03-30T09:00:12.987Z,27.13
2023-03-30T09:01:12.665Z,27.12
2023-03-30T09:02:12.712Z,27.15
2023-03-30T09:03:12.796Z,27.15
2023-03-30T09:04:12.644Z,27.11
2023-03-30T09:05:12.799Z,27.12
2023-03-30T09:06:12.652Z,27.12
2023-03-30T09:07:12.671Z,27.11
2023-03-30T09:08:12.661Z,27.12
2023-03-30T09:09:12.657Z,27.13
2023-03-30T09:10:12.685Z,27.11
2023-03-30T09:11:12.679Z,27.12
2023-03-30T09:12:12.657Z,27.09
2023-03-30T09:13:12.679Z,27.13
2023-03-30T09:14:12.726Z,27.11
2023-03-30T09:15:12.616Z,27.11
2023-03-30T09:16:12.651Z,27.12
2023-03-30T09:17:12.627Z,27.12
2023-03-30T09:18:12.771Z,27.08
2023-03-30T09:19:12.636Z,27.11
2023-03-30T09:20:12.659Z,27.08
2023-03-30T09:21:12.728Z,27.12
2023-03-30T09:22:12.725Z,27.11
2023-03-30T09:23:12.690Z,27.08
2023-03-30T09:24:12.756Z,27.12
2023-03-30T09:25:12.870Z,27.12
2023-03-30T09:26:12.856Z,27.11
2023-03-30T09:27:12.864Z,27.12
2023-03-30T09:28:12.908Z,27.13
2023-03-30T09:29:12.951Z,27.11
2023-03-30T09:30:12.989Z,27.11
2023-03-30T09:31:13.004Z,27.15
2023-03-30T09:32:13.031Z,27.16
2023-03-30T09:33:13.569Z,27.21
2023-03-30T09:34:14.255Z,27.22
2023-03-30T09:35:13.035Z,27.26
2023-03-30T09:36:13.094Z,27.26
2023-03-30T09:37:13.150Z,27.28
2023-03-30T09:38:13.154Z,27.29
2023-03-30T09:39:13.198Z,27.31
2023-03-30T09:40:13.473Z,27.32
2023-03-30T09:41:13.291Z,27.32
2023-03-30T09:42:13.324Z,27.31
2023-03-30T09:43:13.330Z,27.32
2023-03-30T09:44:13.306Z,27.31
2023-03-30T09:45:13.425Z,27.33
2023-03-30T09:46:13.539Z,27.32
2023-03-30T09:47:13.507Z,27.35
2023-03-30T09:48:13.588Z,27.32
2023-03-30T09:49:13.551Z,27.35
2023-03-30T09:50:13.667Z,27.33
2023-03-30T09:51:13.636Z,27.33
2023-03-30T09:52:13.648Z,27.32
2023-03-30T09:53:13.664Z,27.33
2023-03-30T09:54:13.710Z,27.35
2023-03-30T09:55:13.958Z,27.33
2023-03-30T09:56:13.812Z,27.35
2023-03-30T09:57:13.913Z,27.36
2023-03-30T09:58:13.938Z,27.35
2023-03-30T09:59:14.019Z,27.35
2023-03-30T10:00:14.039Z,27.36
2023-03-30T10:01:14.199Z,27.41
2023-03-30T10:02:14.168Z,27.39
2023-03-30T10:03:14.293Z,27.38
2023-03-30T10:04:14.401Z,27.42
2023-03-30T10:05:14.345Z,27.39
2023-03-30T10:06:14.330Z,27.38
2023-03-30T10:07:18.638Z,27.42
2023-03-30T10:08:14.430Z,27.43
2023-03-30T10:09:14.395Z,27.39
2023-03-30T10:10:14.396Z,27.41
2023-03-30T10:11:14.382Z,27.39
2023-03-30T10:12:14.424Z,27.45
2023-03-30T10:13:14.399Z,27.46
2023-03-30T10:14:14.410Z,27.45
2023-03-30T10:15:14.358Z,27.46
2023-03-30T10:16:14.421Z,27.45
2023-03-30T10:17:14.344Z,27.45
2023-03-30T10:18:14.401Z,27.45
2023-03-30T10:19:14.292Z,27.45
2023-03-30T10:20:14.617Z,27.48
2023-03-30T10:21:14.442Z,27.49
2023-03-30T10:22:14.514Z,27.49
2023-03-30T10:23:14.524Z,27.50
2023-03-30T10:24:14.597Z,27.52
2023-03-30T10:25:14.600Z,27.52
2023-03-30T10:26:14.673Z,27.53
2023-03-30T10:27:14.696Z,27.53
2023-03-30T10:28:14.753Z,27.56
2023-03-30T10:29:14.835Z,27.57
2023-03-30T10:30:14.817Z,27.60
2023-03-30T10:31:15.008Z,27.57
2023-03-30T10:32:14.949Z,27.60
2023-03-30T10:33:14.978Z,27.62
2023-03-30T10:34:15.021Z,27.60
2023-03-30T10:35:15.042Z,27.62
2023-03-30T10:36:15.118Z,27.64
2023-03-30T10:37:15.111Z,27.62
2023-03-30T10:38:15.122Z,27.63
2023-03-30T10:39:15.489Z,27.63
2023-03-30T10:40:15.212Z,27.63
2023-03-30T10:41:15.211Z,27.62
2023-03-30T10:42:15.258Z,27.63
2023-03-30T10:43:15.270Z,27.67
2023-03-30T10:44:15.348Z,27.64
2023-03-30T10:45:15.291Z,27.63
2023-03-30T10:46:19.309Z,27.64
2023-03-30T10:47:16.434Z,27.66
2023-03-30T10:48:15.386Z,27.67
2023-03-30T10:49:15.377Z,27.66
2023-03-30T10:50:15.330Z,27.64
2023-03-30T10:51:15.311Z,27.66
2023-03-30T10:52:15.337Z,27.66
2023-03-30T10:53:15.304Z,27.66
2023-03-30T10:54:15.321Z,27.67
2023-03-30T10:55:15.314Z,27.69
2023-03-30T10:56:15.310Z,27.69
2023-03-30T10:57:15.306Z,27.69
2023-03-30T10:58:15.291Z,27.69
2023-03-30T10:59:15.286Z,27.69
2023-03-30T11:00:15.300Z,27.72
2023-03-30T11:01:15.272Z,27.73
2023-03-30T11:02:15.247Z,27.74
2023-03-30T11:03:15.369Z,27.74
2023-03-30T11:04:23.046Z,27.74
2023-03-30T11:05:16.229Z,27.74
2023-03-30T11:06:15.272Z,27.73
2023-03-30T11:07:15.198Z,27.73
2023-03-30T11:08:15.199Z,27.74
2023-03-30T11:09:15.177Z,27.74
2023-03-30T11:10:15.218Z,27.76
2023-03-30T11:11:15.501Z,27.74
2023-03-30T11:12:15.161Z,27.74
2023-03-30T11:13:15.164Z,27.73
2023-03-30T11:14:15.152Z,27.73
2023-03-30T11:15:15.140Z,27.74
2023-03-30T11:16:15.168Z,27.74
2023-03-30T11:17:15.268Z,27.72
2023-03-30T11:18:15.242Z,27.74
2023-03-30T11:19:15.227Z,27.77
2023-03-30T11:20:15.125Z,27.79
2023-03-30T11:21:15.095Z,27.76
2023-03-30T11:22:15.102Z,27.82
2023-03-30T11:23:15.110Z,27.84
2023-03-30T11:24:15.075Z,27.84
2023-03-30T11:25:15.153Z,27.83
2023-03-30T11:26:16.018Z,27.86
2023-03-30T11:27:15.103Z,27.84
2023-03-30T11:28:15.115Z,27.83
2023-03-30T11:29:15.058Z,27.80
2023-03-30T11:30:15.056Z,27.77
2023-03-30T11:31:15.060Z,27.76
2023-03-30T11:32:15.055Z,27.74
2023-03-30T11:33:15.093Z,27.72
2023-03-30T11:34:15.044Z,27.72
2023-03-30T11:35:15.093Z,27.72
2023-03-30T11:36:15.017Z,27.73
2023-03-30T11:37:15.023Z,27.76
2023-03-30T11:38:15.003Z,27.74
2023-03-30T11:39:25.094Z,27.76
2023-03-30T11:40:16.119Z,27.77
2023-03-30T11:41:14.983Z,27.77
2023-03-30T11:42:14.941Z,27.79
2023-03-30T11:43:14.968Z,27.77
2023-03-30T11:44:14.950Z,27.79
2023-03-30T11:45:14.948Z,27.79
2023-03-30T11:46:14.917Z,27.77
2023-03-30T11:47:14.956Z,27.79
2023-03-30T11:48:15.003Z,27.79
2023-03-30T11:49:14.957Z,27.79
2023-03-30T11:50:14.890Z,27.79
2023-03-30T11:51:14.891Z,27.76
2023-03-30T11:52:14.959Z,27.74
2023-03-30T11:53:14.934Z,27.76
2023-03-30T11:54:14.898Z,27.77
2023-03-30T11:55:14.911Z,27.77
2023-03-30T11:56:14.882Z,27.76
2023-03-30T11:57:15.553Z,27.72
2023-03-30T11:58:14.848Z,27.76
2023-03-30T11:59:14.865Z,27.74
2023-03-30T12:00:14.866Z,27.74
2023-03-30T12:01:14.845Z,27.76
2023-03-30T12:02:14.896Z,27.79
2023-03-30T12:03:15.133Z,27.82
2023-03-30T12:04:14.977Z,27.82
2023-03-30T12:05:29.498Z,27.83
2023-03-30T12:06:15.102Z,27.86
2023-03-30T12:07:15.129Z,27.89
2023-03-30T12:08:15.161Z,27.90
2023-03-30T12:09:15.198Z,27.93
2023-03-30T12:10:15.226Z,27.93
2023-03-30T12:11:15.199Z,27.99
2023-03-30T12:12:15.251Z,28.00
2023-03-30T12:13:15.215Z,27.99
2023-03-30T12:14:15.213Z,28.00
2023-03-30T12:15:15.242Z,28.03
2023-03-30T12:16:15.253Z,28.03
2023-03-30T12:17:15.239Z,28.05
2023-03-30T12:18:15.244Z,28.04
2023-03-30T12:19:15.241Z,28.01
2023-03-30T12:20:15.284Z,28.01
2023-03-30T12:21:15.285Z,27.94
2023-03-30T12:22:15.275Z,28.00
2023-03-30T12:23:15.294Z,27.97
2023-03-30T12:24:15.277Z,27.99
2023-03-30T12:25:15.244Z,27.99
2023-03-30T12:26:15.322Z,28.00
2023-03-30T12:27:15.271Z,27.99
2023-03-30T12:28:15.326Z,27.99
2023-03-30T12:30:15.279Z,27.99
2023-03-30T12:31:15.343Z,27.97
2023-03-30T12:32:15.292Z,28.00
2023-03-30T12:33:15.309Z,27.97
2023-03-30T12:34:15.246Z,27.99
2023-03-30T12:35:15.221Z,27.97
2023-03-30T12:36:15.211Z,27.94
2023-03-30T12:37:15.275Z,27.99
2023-03-30T12:38:15.224Z,27.94
2023-03-30T12:39:15.239Z,27.96
2023-03-30T12:40:15.223Z,27.97
2023-03-30T12:41:15.211Z,27.96
2023-03-30T12:42:15.208Z,27.94
2023-03-30T12:43:15.217Z,27.94
2023-03-30T12:44:15.171Z,27.94
2023-03-30T12:45:15.238Z,27.96
2023-03-30T12:46:15.209Z,27.93
2023-03-30T12:47:15.194Z,27.92
2023-03-30T12:48:15.212Z,27.96
2023-03-30T12:49:15.178Z,27.93
2023-03-30T12:50:15.161Z,27.92
2023-03-30T12:51:15.112Z,27.93
2023-03-30T12:52:15.162Z,27.92
2023-03-30T12:53:15.135Z,27.92
2023-03-30T12:54:15.142Z,27.92
2023-03-30T12:55:15.103Z,27.90